sensor_id;sensor_type;location;lat;lon;timestamp;temperature;humidity
70368;DHT22;57789;53.868;10.728;2023-05-18T00:02:05;7.80;99.90
70368;DHT22;57789;53.868;10.728;2023-05-18T00:04:35;7.80;99.90
70368;DHT22;57789;53.868;10.728;2023-05-18T00:07:02;7.90;99.90
70368;DHT22;57789;53.868;10.728;2023-05-18T00:09:30;7.80;99.90
70368;DHT22;57789;53.868;10.728;2023-05-18T00:11:57;7.80;99.90
70368;DHT22;57789;53.868;10.728;2023-05-18T00:14:22;7.80;99.90
70368;DHT22;57789;53.868;10.728;2023-05-18T00:16:48;7.90;99.90
70368;DHT22;57789;53.868;10.728;2023-05-18T00:19:15;7.80;99.90
70368;DHT22;57789;53.868;10.728;2023-05-18T00:21:45;7.80;99.90
70368;DHT22;57789;53.868;10.728;2023-05-18T00:24:14;7.80;99.90
70368;DHT22;57789;53.868;10.728;2023-05-18T00:26:45;7.80;99.90
70368;DHT22;57789;53.868;10.728;2023-05-18T00:29:11;7.80;99.90
70368;DHT22;57789;53.868;10.728;2023-05-18T00:31:38;7.70;99.90
70368;DHT22;57789;53.868;10.728;2023-05-18T00:34:11;7.70;99.90
70368;DHT22;57789;53.868;10.728;2023-05-18T00:36:38;7.80;99.90
70368;DHT22;57789;53.868;10.728;2023-05-18T00:39:05;7.70;99.90
70368;DHT22;57789;53.868;10.728;2023-05-18T00:41:31;7.80;99.90
70368;DHT22;57789;53.868;10.728;2023-05-18T00:43:58;7.80;99.90
70368;DHT22;57789;53.868;10.728;2023-05-18T00:46:25;7.90;99.90
70368;DHT22;57789;53.868;10.728;2023-05-18T00:48:52;7.80;99.90
70368;DHT22;57789;53.868;10.728;2023-05-18T00:51:20;7.80;99.90
70368;DHT22;57789;53.868;10.728;2023-05-18T00:53:54;7.80;99.90
70368;DHT22;57789;53.868;10.728;2023-05-18T00:56:21;7.80;99.90
70368;DHT22;57789;53.868;10.728;2023-05-18T00:58:49;7.80;99.90
70368;DHT22;57789;53.868;10.728;2023-05-18T01:01:18;7.80;99.90
70368;DHT22;57789;53.868;10.728;2023-05-18T01:03:43;7.80;99.90
70368;DHT22;57789;53.868;10.728;2023-05-18T01:06:09;7.80;99.90
70368;DHT22;57789;53.868;10.728;2023-05-18T01:08:37;7.70;99.90
70368;DHT22;57789;53.868;10.728;2023-05-18T01:11:17;7.60;99.90
70368;DHT22;57789;53.868;10.728;2023-05-18T01:17:14;7.60;99.90
70368;DHT22;57789;53.868;10.728;2023-05-18T01:22:27;7.50;99.90
70368;DHT22;57789;53.868;10.728;2023-05-18T01:27:35;7.50;99.90
70368;DHT22;57789;53.868;10.728;2023-05-18T01:30:07;7.50;99.90
70368;DHT22;57789;53.868;10.728;2023-05-18T01:32:39;7.50;99.90
70368;DHT22;57789;53.868;10.728;2023-05-18T01:35:07;7.50;99.90
70368;DHT22;57789;53.868;10.728;2023-05-18T01:37:33;7.40;99.90
70368;DHT22;57789;53.868;10.728;2023-05-18T01:39:59;7.30;99.90
70368;DHT22;57789;53.868;10.728;2023-05-18T01:42:26;7.30;99.90
70368;DHT22;57789;53.868;10.728;2023-05-18T01:44:59;7.20;99.90
70368;DHT22;57789;53.868;10.728;2023-05-18T01:47:29;7.10;99.90
70368;DHT22;57789;53.868;10.728;2023-05-18T01:52:38;7.20;99.90
70368;DHT22;57789;53.868;10.728;2023-05-18T01:55:07;7.10;99.90
70368;DHT22;57789;53.868;10.728;2023-05-18T01:57:35;7.10;99.90
70368;DHT22;57789;53.868;10.728;2023-05-18T02:00:03;7.10;99.90
70368;DHT22;57789;53.868;10.728;2023-05-18T02:02:32;7.10;99.90
70368;DHT22;57789;53.868;10.728;2023-05-18T02:04:58;7.10;99.90
70368;DHT22;57789;53.868;10.728;2023-05-18T02:07:23;7.10;99.90
70368;DHT22;57789;53.868;10.728;2023-05-18T02:09:49;7.10;99.90
70368;DHT22;57789;53.868;10.728;2023-05-18T02:12:15;7.00;99.90
70368;DHT22;57789;53.868;10.728;2023-05-18T02:14:41;7.00;99.90
70368;DHT22;57789;53.868;10.728;2023-05-18T02:17:07;7.00;99.90
70368;DHT22;57789;53.868;10.728;2023-05-18T02:19:33;6.90;99.90
70368;DHT22;57789;53.868;10.728;2023-05-18T02:22:06;6.90;99.90
70368;DHT22;57789;53.868;10.728;2023-05-18T02:24:33;6.90;99.90
70368;DHT22;57789;53.868;10.728;2023-05-18T02:26:59;6.80;99.90
70368;DHT22;57789;53.868;10.728;2023-05-18T02:29:25;6.80;99.90
70368;DHT22;57789;53.868;10.728;2023-05-18T02:31:51;6.80;99.90
70368;DHT22;57789;53.868;10.728;2023-05-18T02:34:17;6.80;99.90
70368;DHT22;57789;53.868;10.728;2023-05-18T02:36:44;6.80;99.90
70368;DHT22;57789;53.868;10.728;2023-05-18T02:39:10;6.80;99.90
70368;DHT22;57789;53.868;10.728;2023-05-18T02:41:37;6.70;99.90
70368;DHT22;57789;53.868;10.728;2023-05-18T02:44:03;6.80;99.90
70368;DHT22;57789;53.868;10.728;2023-05-18T02:46:29;6.70;99.90
70368;DHT22;57789;53.868;10.728;2023-05-18T02:48:56;6.70;99.90
70368;DHT22;57789;53.868;10.728;2023-05-18T02:51:22;6.70;99.90
70368;DHT22;57789;53.868;10.728;2023-05-18T02:53:48;6.70;99.90
70368;DHT22;57789;53.868;10.728;2023-05-18T02:56:14;6.80;99.90
70368;DHT22;57789;53.868;10.728;2023-05-18T02:58:39;6.90;99.90
70368;DHT22;57789;53.868;10.728;2023-05-18T03:01:08;6.90;99.90
70368;DHT22;57789;53.868;10.728;2023-05-18T03:03:36;6.90;99.90
70368;DHT22;57789;53.868;10.728;2023-05-18T03:06:03;6.90;99.90
70368;DHT22;57789;53.868;10.728;2023-05-18T03:08:28;6.90;99.90
70368;DHT22;57789;53.868;10.728;2023-05-18T03:10:58;6.90;99.90
70368;DHT22;57789;53.868;10.728;2023-05-18T03:13:24;6.90;99.90
70368;DHT22;57789;53.868;10.728;2023-05-18T03:15:50;6.90;99.90
70368;DHT22;57789;53.868;10.728;2023-05-18T03:18:19;6.80;99.90
70368;DHT22;57789;53.868;10.728;2023-05-18T03:20:45;6.90;99.90
70368;DHT22;57789;53.868;10.728;2023-05-18T03:23:11;6.90;99.90
70368;DHT22;57789;53.868;10.728;2023-05-18T03:25:36;7.00;99.90
70368;DHT22;57789;53.868;10.728;2023-05-18T03:28:05;7.00;99.90
70368;DHT22;57789;53.868;10.728;2023-05-18T03:30:34;7.00;99.90
70368;DHT22;57789;53.868;10.728;2023-05-18T03:33:01;7.00;99.90
70368;DHT22;57789;53.868;10.728;2023-05-18T03:35:27;7.00;99.90
70368;DHT22;57789;53.868;10.728;2023-05-18T03:37:53;7.10;99.90
70368;DHT22;57789;53.868;10.728;2023-05-18T03:40:19;7.00;99.90
70368;DHT22;57789;53.868;10.728;2023-05-18T03:42:45;7.00;99.90
70368;DHT22;57789;53.868;10.728;2023-05-18T03:45:11;6.90;99.90
70368;DHT22;57789;53.868;10.728;2023-05-18T03:47:38;7.00;99.90
70368;DHT22;57789;53.868;10.728;2023-05-18T03:50:05;7.10;99.90
70368;DHT22;57789;53.868;10.728;2023-05-18T03:52:31;7.10;99.90
70368;DHT22;57789;53.868;10.728;2023-05-18T03:54:59;7.10;99.90
70368;DHT22;57789;53.868;10.728;2023-05-18T03:57:27;7.20;99.90
70368;DHT22;57789;53.868;10.728;2023-05-18T03:59:54;7.30;99.90
70368;DHT22;57789;53.868;10.728;2023-05-18T04:02:20;7.30;99.90
70368;DHT22;57789;53.868;10.728;2023-05-18T04:04:46;7.40;99.90
70368;DHT22;57789;53.868;10.728;2023-05-18T04:07:15;7.50;99.90
70368;DHT22;57789;53.868;10.728;2023-05-18T04:09:42;7.60;99.90
70368;DHT22;57789;53.868;10.728;2023-05-18T04:12:08;7.50;99.90
70368;DHT22;57789;53.868;10.728;2023-05-18T04:14:35;7.50;99.90
70368;DHT22;57789;53.868;10.728;2023-05-18T04:17:01;7.60;99.90
70368;DHT22;57789;53.868;10.728;2023-05-18T04:19:34;7.70;99.90
70368;DHT22;57789;53.868;10.728;2023-05-18T04:22:01;7.70;99.90
70368;DHT22;57789;53.868;10.728;2023-05-18T04:24:30;7.80;99.90
70368;DHT22;57789;53.868;10.728;2023-05-18T04:26:57;7.80;99.90
70368;DHT22;57789;53.868;10.728;2023-05-18T04:29:24;7.90;99.90
70368;DHT22;57789;53.868;10.728;2023-05-18T04:31:49;8.00;99.90
70368;DHT22;57789;53.868;10.728;2023-05-18T04:34:15;8.00;99.90
70368;DHT22;57789;53.868;10.728;2023-05-18T04:36:43;8.10;99.90
70368;DHT22;57789;53.868;10.728;2023-05-18T04:39:09;8.20;99.90
70368;DHT22;57789;53.868;10.728;2023-05-18T04:41:36;8.20;99.90
70368;DHT22;57789;53.868;10.728;2023-05-18T04:44:02;8.10;99.90
70368;DHT22;57789;53.868;10.728;2023-05-18T04:46:29;8.20;99.90
70368;DHT22;57789;53.868;10.728;2023-05-18T04:48:54;8.30;99.90
70368;DHT22;57789;53.868;10.728;2023-05-18T04:51:23;8.30;99.90
70368;DHT22;57789;53.868;10.728;2023-05-18T04:53:49;8.30;99.90
70368;DHT22;57789;53.868;10.728;2023-05-18T04:56:16;8.30;99.90
70368;DHT22;57789;53.868;10.728;2023-05-18T04:58:42;8.30;99.90
70368;DHT22;57789;53.868;10.728;2023-05-18T05:01:13;8.50;99.90
70368;DHT22;57789;53.868;10.728;2023-05-18T05:03:42;8.60;99.90
70368;DHT22;57789;53.868;10.728;2023-05-18T05:06:08;8.70;99.90
70368;DHT22;57789;53.868;10.728;2023-05-18T05:08:36;8.90;99.90
70368;DHT22;57789;53.868;10.728;2023-05-18T05:11:02;9.10;99.90
70368;DHT22;57789;53.868;10.728;2023-05-18T05:13:28;9.10;99.90
70368;DHT22;57789;53.868;10.728;2023-05-18T05:15:54;9.10;99.90
70368;DHT22;57789;53.868;10.728;2023-05-18T05:18:20;9.20;99.90
70368;DHT22;57789;53.868;10.728;2023-05-18T05:20:46;9.30;99.90
70368;DHT22;57789;53.868;10.728;2023-05-18T05:23:12;9.50;99.90
70368;DHT22;57789;53.868;10.728;2023-05-18T05:25:38;9.60;99.90
70368;DHT22;57789;53.868;10.728;2023-05-18T05:28:04;9.30;99.90
70368;DHT22;57789;53.868;10.728;2023-05-18T05:30:30;9.10;99.90
70368;DHT22;57789;53.868;10.728;2023-05-18T05:32:56;9.00;99.90
70368;DHT22;57789;53.868;10.728;2023-05-18T05:35:21;9.00;99.90
70368;DHT22;57789;53.868;10.728;2023-05-18T05:37:47;9.00;99.90
70368;DHT22;57789;53.868;10.728;2023-05-18T05:40:13;9.00;99.90
70368;DHT22;57789;53.868;10.728;2023-05-18T05:42:39;9.00;99.90
70368;DHT22;57789;53.868;10.728;2023-05-18T05:45:07;9.00;99.90
70368;DHT22;57789;53.868;10.728;2023-05-18T05:47:32;9.10;99.90
70368;DHT22;57789;53.868;10.728;2023-05-18T05:49:58;9.10;99.90
70368;DHT22;57789;53.868;10.728;2023-05-18T05:52:25;8.90;99.90
70368;DHT22;57789;53.868;10.728;2023-05-18T05:54:53;8.90;99.90
70368;DHT22;57789;53.868;10.728;2023-05-18T05:57:21;8.80;99.90
70368;DHT22;57789;53.868;10.728;2023-05-18T05:59:46;8.70;99.90
70368;DHT22;57789;53.868;10.728;2023-05-18T06:02:13;8.70;99.90
70368;DHT22;57789;53.868;10.728;2023-05-18T06:04:39;8.70;99.90
70368;DHT22;57789;53.868;10.728;2023-05-18T06:07:06;9.00;99.90
70368;DHT22;57789;53.868;10.728;2023-05-18T06:09:33;8.90;99.90
70368;DHT22;57789;53.868;10.728;2023-05-18T06:11:58;8.80;99.90
70368;DHT22;57789;53.868;10.728;2023-05-18T06:14:25;8.70;99.90
70368;DHT22;57789;53.868;10.728;2023-05-18T06:16:50;8.80;99.90
70368;DHT22;57789;53.868;10.728;2023-05-18T06:19:16;8.80;99.90
70368;DHT22;57789;53.868;10.728;2023-05-18T06:21:42;8.90;99.90
70368;DHT22;57789;53.868;10.728;2023-05-18T06:24:08;8.90;99.90
70368;DHT22;57789;53.868;10.728;2023-05-18T06:26:34;9.00;99.90
70368;DHT22;57789;53.868;10.728;2023-05-18T06:28:59;8.90;99.90
70368;DHT22;57789;53.868;10.728;2023-05-18T06:31:34;8.90;99.90
70368;DHT22;57789;53.868;10.728;2023-05-18T06:34:00;8.90;99.90
70368;DHT22;57789;53.868;10.728;2023-05-18T06:36:26;9.20;99.90
70368;DHT22;57789;53.868;10.728;2023-05-18T06:38:52;9.40;99.90
70368;DHT22;57789;53.868;10.728;2023-05-18T06:41:17;9.60;99.90
70368;DHT22;57789;53.868;10.728;2023-05-18T06:43:43;9.60;99.90
70368;DHT22;57789;53.868;10.728;2023-05-18T06:46:18;9.80;99.90
70368;DHT22;57789;53.868;10.728;2023-05-18T06:48:44;10.00;99.90
70368;DHT22;57789;53.868;10.728;2023-05-18T06:51:11;10.10;99.90
70368;DHT22;57789;53.868;10.728;2023-05-18T06:53:37;10.00;99.90
70368;DHT22;57789;53.868;10.728;2023-05-18T06:56:03;10.20;99.90
70368;DHT22;57789;53.868;10.728;2023-05-18T06:58:29;10.40;99.90
70368;DHT22;57789;53.868;10.728;2023-05-18T07:00:55;10.50;99.90
70368;DHT22;57789;53.868;10.728;2023-05-18T07:03:20;10.80;99.90
70368;DHT22;57789;53.868;10.728;2023-05-18T07:05:46;10.70;99.90
70368;DHT22;57789;53.868;10.728;2023-05-18T07:08:12;10.50;99.90
70368;DHT22;57789;53.868;10.728;2023-05-18T07:10:38;10.40;99.90
70368;DHT22;57789;53.868;10.728;2023-05-18T07:13:03;10.60;99.90
70368;DHT22;57789;53.868;10.728;2023-05-18T07:15:32;10.40;99.90
70368;DHT22;57789;53.868;10.728;2023-05-18T07:17:58;10.30;99.90
70368;DHT22;57789;53.868;10.728;2023-05-18T07:20:24;9.80;99.90
70368;DHT22;57789;53.868;10.728;2023-05-18T07:22:50;9.80;99.90
70368;DHT22;57789;53.868;10.728;2023-05-18T07:25:16;9.60;99.90
70368;DHT22;57789;53.868;10.728;2023-05-18T07:27:41;9.70;99.90
70368;DHT22;57789;53.868;10.728;2023-05-18T07:30:08;9.80;99.90
70368;DHT22;57789;53.868;10.728;2023-05-18T07:32:34;10.00;99.90
70368;DHT22;57789;53.868;10.728;2023-05-18T07:34:59;10.10;99.90
70368;DHT22;57789;53.868;10.728;2023-05-18T07:37:25;9.80;99.90
70368;DHT22;57789;53.868;10.728;2023-05-18T07:39:51;9.80;99.90
70368;DHT22;57789;53.868;10.728;2023-05-18T07:42:17;9.80;99.90
70368;DHT22;57789;53.868;10.728;2023-05-18T07:44:42;9.80;99.90
70368;DHT22;57789;53.868;10.728;2023-05-18T07:47:08;9.80;99.90
70368;DHT22;57789;53.868;10.728;2023-05-18T07:49:34;10.10;99.90
70368;DHT22;57789;53.868;10.728;2023-05-18T07:52:00;10.40;99.90
70368;DHT22;57789;53.868;10.728;2023-05-18T07:54:27;10.50;99.90
70368;DHT22;57789;53.868;10.728;2023-05-18T07:56:52;10.80;99.90
70368;DHT22;57789;53.868;10.728;2023-05-18T07:59:19;10.90;99.90
70368;DHT22;57789;53.868;10.728;2023-05-18T08:01:44;10.90;99.90
70368;DHT22;57789;53.868;10.728;2023-05-18T08:04:10;11.10;99.90
70368;DHT22;57789;53.868;10.728;2023-05-18T08:06:36;11.30;99.90
70368;DHT22;57789;53.868;10.728;2023-05-18T08:09:02;11.50;99.90
70368;DHT22;57789;53.868;10.728;2023-05-18T08:11:28;11.70;99.90
70368;DHT22;57789;53.868;10.728;2023-05-18T08:13:54;12.20;99.90
70368;DHT22;57789;53.868;10.728;2023-05-18T08:16:20;12.60;99.90
70368;DHT22;57789;53.868;10.728;2023-05-18T08:18:46;13.00;99.90
70368;DHT22;57789;53.868;10.728;2023-05-18T08:21:11;13.00;99.90
70368;DHT22;57789;53.868;10.728;2023-05-18T08:23:38;12.70;99.90
70368;DHT22;57789;53.868;10.728;2023-05-18T08:26:04;12.00;99.90
70368;DHT22;57789;53.868;10.728;2023-05-18T08:28:30;11.50;99.90
70368;DHT22;57789;53.868;10.728;2023-05-18T08:30:56;11.30;99.90
70368;DHT22;57789;53.868;10.728;2023-05-18T08:33:22;10.90;99.90
70368;DHT22;57789;53.868;10.728;2023-05-18T08:35:48;10.50;99.90
70368;DHT22;57789;53.868;10.728;2023-05-18T08:38:14;10.30;99.90
70368;DHT22;57789;53.868;10.728;2023-05-18T08:41:14;10.40;99.90
70368;DHT22;57789;53.868;10.728;2023-05-18T08:43:45;10.50;99.90
70368;DHT22;57789;53.868;10.728;2023-05-18T08:46:20;10.50;99.90
70368;DHT22;57789;53.868;10.728;2023-05-18T08:48:46;10.40;99.90
70368;DHT22;57789;53.868;10.728;2023-05-18T08:51:12;10.40;99.90
70368;DHT22;57789;53.868;10.728;2023-05-18T08:53:44;10.50;99.90
70368;DHT22;57789;53.868;10.728;2023-05-18T08:56:10;10.60;99.90
70368;DHT22;57789;53.868;10.728;2023-05-18T08:58:43;10.90;99.90
70368;DHT22;57789;53.868;10.728;2023-05-18T09:01:09;11.20;99.90
70368;DHT22;57789;53.868;10.728;2023-05-18T09:03:37;11.10;99.90
70368;DHT22;57789;53.868;10.728;2023-05-18T09:06:03;10.80;99.90
70368;DHT22;57789;53.868;10.728;2023-05-18T09:08:29;10.80;99.90
70368;DHT22;57789;53.868;10.728;2023-05-18T09:10:56;10.90;99.90
70368;DHT22;57789;53.868;10.728;2023-05-18T09:13:23;11.00;99.90
70368;DHT22;57789;53.868;10.728;2023-05-18T09:15:49;11.20;99.90
70368;DHT22;57789;53.868;10.728;2023-05-18T09:18:15;11.50;99.90
70368;DHT22;57789;53.868;10.728;2023-05-18T09:20:41;11.50;99.90
70368;DHT22;57789;53.868;10.728;2023-05-18T09:23:07;11.40;99.90
70368;DHT22;57789;53.868;10.728;2023-05-18T09:25:36;11.10;99.90
70368;DHT22;57789;53.868;10.728;2023-05-18T09:28:07;11.20;99.90
70368;DHT22;57789;53.868;10.728;2023-05-18T09:30:41;11.00;99.90
70368;DHT22;57789;53.868;10.728;2023-05-18T09:33:19;11.10;99.90
70368;DHT22;57789;53.868;10.728;2023-05-18T09:35:51;11.30;99.90
70368;DHT22;57789;53.868;10.728;2023-05-18T09:38:20;11.60;99.90
70368;DHT22;57789;53.868;10.728;2023-05-18T09:40:47;11.80;99.90
70368;DHT22;57789;53.868;10.728;2023-05-18T09:43:15;11.70;99.90
70368;DHT22;57789;53.868;10.728;2023-05-18T09:45:42;11.50;99.90
70368;DHT22;57789;53.868;10.728;2023-05-18T09:48:09;11.50;99.90
70368;DHT22;57789;53.868;10.728;2023-05-18T09:50:35;11.60;99.90
70368;DHT22;57789;53.868;10.728;2023-05-18T09:53:05;12.00;99.90
70368;DHT22;57789;53.868;10.728;2023-05-18T09:55:45;12.00;99.90
70368;DHT22;57789;53.868;10.728;2023-05-18T09:58:11;11.70;99.90
70368;DHT22;57789;53.868;10.728;2023-05-18T10:00:40;11.50;99.90
70368;DHT22;57789;53.868;10.728;2023-05-18T10:03:16;11.70;99.90
70368;DHT22;57789;53.868;10.728;2023-05-18T10:05:42;11.90;99.90
70368;DHT22;57789;53.868;10.728;2023-05-18T10:08:08;12.20;99.90
70368;DHT22;57789;53.868;10.728;2023-05-18T10:10:37;12.20;99.90
70368;DHT22;57789;53.868;10.728;2023-05-18T10:13:03;12.30;99.90
70368;DHT22;57789;53.868;10.728;2023-05-18T10:15:29;12.30;99.90
70368;DHT22;57789;53.868;10.728;2023-05-18T10:17:56;12.20;99.90
70368;DHT22;57789;53.868;10.728;2023-05-18T10:20:23;12.20;99.90
70368;DHT22;57789;53.868;10.728;2023-05-18T10:22:54;12.10;99.90
70368;DHT22;57789;53.868;10.728;2023-05-18T10:25:22;11.80;99.90
70368;DHT22;57789;53.868;10.728;2023-05-18T10:27:54;11.90;99.90
70368;DHT22;57789;53.868;10.728;2023-05-18T10:30:21;11.90;99.90
70368;DHT22;57789;53.868;10.728;2023-05-18T10:32:47;12.00;99.90
70368;DHT22;57789;53.868;10.728;2023-05-18T10:35:14;12.00;99.90
70368;DHT22;57789;53.868;10.728;2023-05-18T10:37:44;12.00;99.90
70368;DHT22;57789;53.868;10.728;2023-05-18T10:40:12;12.00;99.90
70368;DHT22;57789;53.868;10.728;2023-05-18T10:42:40;12.30;99.90
70368;DHT22;57789;53.868;10.728;2023-05-18T10:45:08;12.60;99.90
70368;DHT22;57789;53.868;10.728;2023-05-18T10:47:35;13.00;99.90
70368;DHT22;57789;53.868;10.728;2023-05-18T10:50:05;13.10;99.90
70368;DHT22;57789;53.868;10.728;2023-05-18T10:52:31;13.20;99.90
70368;DHT22;57789;53.868;10.728;2023-05-18T10:54:58;13.40;99.90
70368;DHT22;57789;53.868;10.728;2023-05-18T10:57:36;13.50;99.90
70368;DHT22;57789;53.868;10.728;2023-05-18T11:00:05;13.50;99.90
70368;DHT22;57789;53.868;10.728;2023-05-18T11:02:32;13.40;99.90
70368;DHT22;57789;53.868;10.728;2023-05-18T11:04:58;13.50;99.90
70368;DHT22;57789;53.868;10.728;2023-05-18T11:07:25;13.30;99.90
70368;DHT22;57789;53.868;10.728;2023-05-18T11:09:53;13.40;99.90
70368;DHT22;57789;53.868;10.728;2023-05-18T11:12:21;13.50;99.90
70368;DHT22;57789;53.868;10.728;2023-05-18T11:14:53;13.70;99.90
70368;DHT22;57789;53.868;10.728;2023-05-18T11:17:23;13.90;99.90
70368;DHT22;57789;53.868;10.728;2023-05-18T11:22:49;13.90;99.90
70368;DHT22;57789;53.868;10.728;2023-05-18T11:28:00;14.30;99.90
70368;DHT22;57789;53.868;10.728;2023-05-18T11:35:32;14.30;99.90
70368;DHT22;57789;53.868;10.728;2023-05-18T11:38:08;14.10;99.90
70368;DHT22;57789;53.868;10.728;2023-05-18T11:40:45;14.10;99.90
70368;DHT22;57789;53.868;10.728;2023-05-18T11:43:22;14.00;99.90
70368;DHT22;57789;53.868;10.728;2023-05-18T11:45:55;14.20;99.90
70368;DHT22;57789;53.868;10.728;2023-05-18T11:48:27;14.00;99.90
70368;DHT22;57789;53.868;10.728;2023-05-18T11:50:56;14.50;99.90
70368;DHT22;57789;53.868;10.728;2023-05-18T11:53:25;14.80;99.90
70368;DHT22;57789;53.868;10.728;2023-05-18T11:55:52;15.10;99.90
70368;DHT22;57789;53.868;10.728;2023-05-18T11:58:24;15.40;98.20
70368;DHT22;57789;53.868;10.728;2023-05-18T12:00:50;15.50;98.50
70368;DHT22;57789;53.868;10.728;2023-05-18T12:03:17;15.70;97.80
70368;DHT22;57789;53.868;10.728;2023-05-18T12:05:43;16.10;96.20
70368;DHT22;57789;53.868;10.728;2023-05-18T12:08:17;16.80;97.50
70368;DHT22;57789;53.868;10.728;2023-05-18T12:10:44;17.30;92.50
70368;DHT22;57789;53.868;10.728;2023-05-18T12:13:16;17.70;90.70
70368;DHT22;57789;53.868;10.728;2023-05-18T12:15:43;18.20;85.50
70368;DHT22;57789;53.868;10.728;2023-05-18T12:18:09;18.90;86.00
70368;DHT22;57789;53.868;10.728;2023-05-18T12:20:38;19.90;79.60
70368;DHT22;57789;53.868;10.728;2023-05-18T12:23:04;20.60;70.20
70368;DHT22;57789;53.868;10.728;2023-05-18T12:25:30;20.70;67.50
70368;DHT22;57789;53.868;10.728;2023-05-18T12:27:55;21.40;65.40
70368;DHT22;57789;53.868;10.728;2023-05-18T12:30:23;21.30;62.30
70368;DHT22;57789;53.868;10.728;2023-05-18T12:32:51;21.70;62.40
70368;DHT22;57789;53.868;10.728;2023-05-18T12:35:24;21.50;58.80
70368;DHT22;57789;53.868;10.728;2023-05-18T12:37:50;21.10;57.70
70368;DHT22;57789;53.868;10.728;2023-05-18T12:40:17;21.30;59.40
70368;DHT22;57789;53.868;10.728;2023-05-18T12:42:59;22.10;59.20
70368;DHT22;57789;53.868;10.728;2023-05-18T12:45:30;21.70;55.10
70368;DHT22;57789;53.868;10.728;2023-05-18T12:48:09;22.10;56.70
70368;DHT22;57789;53.868;10.728;2023-05-18T12:50:35;22.50;55.50
70368;DHT22;57789;53.868;10.728;2023-05-18T12:53:03;22.90;55.50
70368;DHT22;57789;53.868;10.728;2023-05-18T12:55:29;23.30;54.30
70368;DHT22;57789;53.868;10.728;2023-05-18T12:58:00;23.70;53.50
70368;DHT22;57789;53.868;10.728;2023-05-18T13:00:30;24.10;54.40
70368;DHT22;57789;53.868;10.728;2023-05-18T13:03:06;24.40;50.70
70368;DHT22;57789;53.868;10.728;2023-05-18T13:05:32;24.20;51.50
70368;DHT22;57789;53.868;10.728;2023-05-18T13:07:58;23.20;50.60
70368;DHT22;57789;53.868;10.728;2023-05-18T13:10:24;23.10;51.70
70368;DHT22;57789;53.868;10.728;2023-05-18T13:12:50;23.00;51.40
70368;DHT22;57789;53.868;10.728;2023-05-18T13:15:17;22.70;52.50
70368;DHT22;57789;53.868;10.728;2023-05-18T13:20:45;22.60;53.90
70368;DHT22;57789;53.868;10.728;2023-05-18T13:23:17;22.30;53.00
70368;DHT22;57789;53.868;10.728;2023-05-18T13:25:44;21.80;54.30
70368;DHT22;57789;53.868;10.728;2023-05-18T13:28:15;22.80;54.70
70368;DHT22;57789;53.868;10.728;2023-05-18T13:30:42;22.40;54.70
70368;DHT22;57789;53.868;10.728;2023-05-18T13:33:08;22.90;54.30
70368;DHT22;57789;53.868;10.728;2023-05-18T13:35:40;23.50;53.80
70368;DHT22;57789;53.868;10.728;2023-05-18T13:38:10;23.50;51.60
70368;DHT22;57789;53.868;10.728;2023-05-18T13:40:37;23.30;52.40
70368;DHT22;57789;53.868;10.728;2023-05-18T13:43:03;22.60;52.80
70368;DHT22;57789;53.868;10.728;2023-05-18T13:45:30;22.40;55.40
70368;DHT22;57789;53.868;10.728;2023-05-18T13:47:57;21.00;54.60
70368;DHT22;57789;53.868;10.728;2023-05-18T13:50:24;20.30;57.60
70368;DHT22;57789;53.868;10.728;2023-05-18T13:52:51;21.00;60.60
70368;DHT22;57789;53.868;10.728;2023-05-18T13:55:18;21.40;57.10
70368;DHT22;57789;53.868;10.728;2023-05-18T13:57:46;21.60;56.20
70368;DHT22;57789;53.868;10.728;2023-05-18T14:00:13;22.70;56.00
70368;DHT22;57789;53.868;10.728;2023-05-18T14:02:41;23.30;55.00
70368;DHT22;57789;53.868;10.728;2023-05-18T14:05:08;23.40;52.70
70368;DHT22;57789;53.868;10.728;2023-05-18T14:07:37;23.90;52.50
70368;DHT22;57789;53.868;10.728;2023-05-18T14:10:04;24.50;52.10
70368;DHT22;57789;53.868;10.728;2023-05-18T14:12:31;23.80;53.20
70368;DHT22;57789;53.868;10.728;2023-05-18T14:14:57;23.60;54.90
70368;DHT22;57789;53.868;10.728;2023-05-18T14:17:23;23.60;54.70
70368;DHT22;57789;53.868;10.728;2023-05-18T14:19:48;23.60;54.80
70368;DHT22;57789;53.868;10.728;2023-05-18T14:22:14;24.00;54.60
70368;DHT22;57789;53.868;10.728;2023-05-18T14:24:41;23.90;53.30
70368;DHT22;57789;53.868;10.728;2023-05-18T14:27:07;23.60;52.70
70368;DHT22;57789;53.868;10.728;2023-05-18T14:29:33;24.20;52.60
70368;DHT22;57789;53.868;10.728;2023-05-18T14:31:59;23.30;52.00
70368;DHT22;57789;53.868;10.728;2023-05-18T14:34:25;24.30;54.50
70368;DHT22;57789;53.868;10.728;2023-05-18T14:36:51;24.90;52.30
70368;DHT22;57789;53.868;10.728;2023-05-18T14:39:17;24.80;52.80
70368;DHT22;57789;53.868;10.728;2023-05-18T14:41:43;24.80;52.10
70368;DHT22;57789;53.868;10.728;2023-05-18T14:44:09;24.50;51.70
70368;DHT22;57789;53.868;10.728;2023-05-18T14:46:35;24.70;52.90
70368;DHT22;57789;53.868;10.728;2023-05-18T14:49:02;24.40;53.90
70368;DHT22;57789;53.868;10.728;2023-05-18T14:51:27;24.40;53.00
70368;DHT22;57789;53.868;10.728;2023-05-18T14:53:53;24.40;52.20
70368;DHT22;57789;53.868;10.728;2023-05-18T14:56:19;24.40;52.00
70368;DHT22;57789;53.868;10.728;2023-05-18T14:58:44;24.20;52.10
70368;DHT22;57789;53.868;10.728;2023-05-18T15:01:10;24.80;51.70
70368;DHT22;57789;53.868;10.728;2023-05-18T15:03:36;25.70;51.60
70368;DHT22;57789;53.868;10.728;2023-05-18T15:06:02;25.50;50.40
70368;DHT22;57789;53.868;10.728;2023-05-18T15:08:28;26.00;50.70
70368;DHT22;57789;53.868;10.728;2023-05-18T15:10:53;26.10;49.30
70368;DHT22;57789;53.868;10.728;2023-05-18T15:13:19;26.40;48.80
70368;DHT22;57789;53.868;10.728;2023-05-18T15:15:45;27.00;49.00
70368;DHT22;57789;53.868;10.728;2023-05-18T15:18:11;25.90;48.00
70368;DHT22;57789;53.868;10.728;2023-05-18T15:20:37;26.00;50.50
70368;DHT22;57789;53.868;10.728;2023-05-18T15:23:09;26.50;50.20
70368;DHT22;57789;53.868;10.728;2023-05-18T15:25:36;27.20;48.70
70368;DHT22;57789;53.868;10.728;2023-05-18T15:28:02;27.80;48.70
70368;DHT22;57789;53.868;10.728;2023-05-18T15:30:28;28.50;46.60
70368;DHT22;57789;53.868;10.728;2023-05-18T15:33:00;28.80;45.90
70368;DHT22;57789;53.868;10.728;2023-05-18T15:35:30;28.90;44.50
70368;DHT22;57789;53.868;10.728;2023-05-18T15:37:56;28.50;44.30
70368;DHT22;57789;53.868;10.728;2023-05-18T15:40:22;28.10;44.70
70368;DHT22;57789;53.868;10.728;2023-05-18T15:42:48;27.70;42.90
70368;DHT22;57789;53.868;10.728;2023-05-18T15:45:14;27.30;40.90
70368;DHT22;57789;53.868;10.728;2023-05-18T15:47:40;27.70;41.40
70368;DHT22;57789;53.868;10.728;2023-05-18T15:50:07;27.30;40.90